<?xml version='1.0' encoding='utf-8'?>
<gpx xmlns="http://www.topografix.com/GPX/1/1" xmlns:xsi="http://www.w3.org/2001/XMLSchema-instance" version="v1.1.5" creator="iTravel Tech Inc. - http://www.itravel-tech.com" xsi:schemaLocation="http://www.topografix.com/GPX/1/1 http://www.topografix.com/GPX/1/1/gpx.xsd http://www.topografix.com/GPX/gpx_overlay/0/3 http://www.topografix.com/GPX/gpx_overlay/0/3/gpx_overlay.xsd http://www.topografix.com/GPX/gpx_modified/0/1 http://www.topografix.com/GPX/gpx_modified/0/1/gpx_modified.xsd">
<trk>
<name>Holux2010/07/18_09:30</name>
<trkseg>
<trkpt lat="55.704346" lon="26.086185">
<ele>156.3</ele>
<time>2010-07-18T06:30:23Z</time>
<desc>lat.=55.704346, lon.=26.086185, Alt.=168.349731m. Speed=0.396000m/h.</desc>
<speed>0.110000</speed>
</trkpt>
<trkpt lat="55.704311" lon="26.086393">
<ele>157.1</ele>
<time>2010-07-18T06:30:35Z</time>
<desc>lat.=55.704311, lon.=26.086393, Alt.=150.162231m. Speed=0.936000m/h.</desc>
<speed>0.260000</speed>
</trkpt>
<trkpt lat="55.703495" lon="26.086353">
<ele>155.3</ele>
<time>2010-07-18T06:31:26Z</time>
<desc>lat.=55.703495, lon.=26.086353, Alt.=147.580200m. Speed=0.648000m/h.</desc>
<speed>0.180000</speed>
</trkpt>
<trkpt lat="55.703876" lon="26.088974">
<ele>156.9</ele>
<time>2010-07-18T06:33:02Z</time>
<desc>lat.=55.703876, lon.=26.088974, Alt.=145.298950m. Speed=15.624000m/h.</desc>
<speed>4.340000</speed>
</trkpt>
<trkpt lat="55.704323" lon="26.090572">
<ele>159.1</ele>
<time>2010-07-18T06:33:28Z</time>
<desc>lat.=55.704323, lon.=26.090572, Alt.=145.213013m. Speed=10.944000m/h.</desc>
<speed>3.040000</speed>
</trkpt>
<trkpt lat="55.705643" lon="26.092957">
<ele>161.1</ele>
<time>2010-07-18T06:34:15Z</time>
<desc>lat.=55.705643, lon.=26.092957, Alt.=146.197388m. Speed=18.180000m/h.</desc>
<speed>5.050000</speed>
</trkpt>
<trkpt lat="55.706142" lon="26.095591">
<ele>162.3</ele>
<time>2010-07-18T06:34:54Z</time>
<desc>lat.=55.706142, lon.=26.095591, Alt.=150.349731m. Speed=8.316000m/h.</desc>
<speed>2.310000</speed>
</trkpt>
<trkpt lat="55.706074" lon="26.096567">
<ele>168.3</ele>
<time>2010-07-18T06:35:26Z</time>
<desc>lat.=55.706074, lon.=26.096567, Alt.=159.263794m. Speed=4.932000m/h.</desc>
<speed>1.370000</speed>
</trkpt>
<trkpt lat="55.705078" lon="26.099733">
<ele>165.1</ele>
<time>2010-07-18T06:36:25Z</time>
<desc>lat.=55.705078, lon.=26.099733, Alt.=162.677856m. Speed=15.624000m/h.</desc>
<speed>4.340000</speed>
</trkpt>
<trkpt lat="55.704975" lon="26.100658">
<ele>163.5</ele>
<time>2010-07-18T06:36:37Z</time>
<desc>lat.=55.704975, lon.=26.100658, Alt.=161.478638m. Speed=18.180000m/h.</desc>
<speed>5.050000</speed>
</trkpt>
<trkpt lat="55.706089" lon="26.105862">
<ele>157.4</ele>
<time>2010-07-18T06:37:39Z</time>
<desc>lat.=55.706089, lon.=26.105862, Alt.=151.466919m. Speed=17.820000m/h.</desc>
<speed>4.950000</speed>
</trkpt>
<trkpt lat="55.706478" lon="26.108458">
<ele>163.3</ele>
<time>2010-07-18T06:38:21Z</time>
<desc>lat.=55.706478, lon.=26.108458, Alt.=158.486450m. Speed=10.980000m/h.</desc>
<speed>3.050000</speed>
</trkpt>
<trkpt lat="55.705978" lon="26.112232">
<ele>160.0</ele>
<time>2010-07-18T06:39:11Z</time>
<desc>lat.=55.705978, lon.=26.112232, Alt.=158.873169m. Speed=18.719999m/h.</desc>
<speed>5.200000</speed>
</trkpt>
<trkpt lat="55.706375" lon="26.121916">
<ele>162.8</ele>
<time>2010-07-18T06:41:15Z</time>
<desc>lat.=55.706375, lon.=26.121916, Alt.=153.173950m. Speed=17.784000m/h.</desc>
<speed>4.940000</speed>
</trkpt>
<trkpt lat="55.707771" lon="26.127295">
<ele>161.6</ele>
<time>2010-07-18T06:42:40Z</time>
<desc>lat.=55.707771, lon.=26.127295, Alt.=159.150513m. Speed=12.276000m/h.</desc>
<speed>3.410000</speed>
</trkpt>
<trkpt lat="55.708111" lon="26.130970">
<ele>157.3</ele>
<time>2010-07-18T06:43:24Z</time>
<desc>lat.=55.708111, lon.=26.130970, Alt.=150.146606m. Speed=16.056000m/h.</desc>
<speed>4.460000</speed>
</trkpt>
<trkpt lat="55.708485" lon="26.131941">
<ele>157.5</ele>
<time>2010-07-18T06:43:40Z</time>
<desc>lat.=55.708485, lon.=26.131941, Alt.=154.392700m. Speed=13.536000m/h.</desc>
<speed>3.760000</speed>
</trkpt>
<trkpt lat="55.708908" lon="26.132473">
<ele>157.8</ele>
<time>2010-07-18T06:43:53Z</time>
<desc>lat.=55.708908, lon.=26.132473, Alt.=156.392700m. Speed=17.459999m/h.</desc>
<speed>4.850000</speed>
</trkpt>
<trkpt lat="55.711643" lon="26.135008">
<ele>160.6</ele>
<time>2010-07-18T06:45:06Z</time>
<desc>lat.=55.711643, lon.=26.135008, Alt.=152.119263m. Speed=26.459999m/h.</desc>
<speed>7.350000</speed>
</trkpt>
<trkpt lat="55.711956" lon="26.137794">
<ele>152.1</ele>
<time>2010-07-18T06:45:35Z</time>
<desc>lat.=55.711956, lon.=26.137794, Alt.=148.759888m. Speed=13.320000m/h.</desc>
<speed>3.700000</speed>
</trkpt>
<trkpt lat="55.715199" lon="26.143127">
<ele>156.1</ele>
<time>2010-07-18T06:47:09Z</time>
<desc>lat.=55.715199, lon.=26.143127, Alt.=153.084106m. Speed=12.708000m/h.</desc>
<speed>3.530000</speed>
</trkpt>
<trkpt lat="55.716599" lon="26.146969">
<ele>151.7</ele>
<time>2010-07-18T06:49:31Z</time>
<desc>lat.=55.716599, lon.=26.146969, Alt.=149.072388m. Speed=29.771999m/h.</desc>
<speed>8.270000</speed>
</trkpt>
<trkpt lat="55.716938" lon="26.148468">
<ele>152.0</ele>
<time>2010-07-18T06:49:44Z</time>
<desc>lat.=55.716938, lon.=26.148468, Alt.=149.150513m. Speed=23.400000m/h.</desc>
<speed>6.500000</speed>
</trkpt>
<trkpt lat="55.719120" lon="26.154217">
<ele>155.4</ele>
<time>2010-07-18T06:51:14Z</time>
<desc>lat.=55.719120, lon.=26.154217, Alt.=158.025513m. Speed=18.864000m/h.</desc>
<speed>5.240000</speed>
</trkpt>
<trkpt lat="55.719765" lon="26.156769">
<ele>156.1</ele>
<time>2010-07-18T06:51:48Z</time>
<desc>lat.=55.719765, lon.=26.156769, Alt.=167.021606m. Speed=12.096000m/h.</desc>
<speed>3.360000</speed>
</trkpt>
<trkpt lat="55.720394" lon="26.158253">
<ele>154.2</ele>
<time>2010-07-18T06:52:14Z</time>
<desc>lat.=55.720394, lon.=26.158253, Alt.=156.673950m. Speed=21.996000m/h.</desc>
<speed>6.110000</speed>
</trkpt>
<trkpt lat="55.720932" lon="26.160639">
<ele>152.9</ele>
<time>2010-07-18T06:52:44Z</time>
<desc>lat.=55.720932, lon.=26.160639, Alt.=153.416138m. Speed=18.252001m/h.</desc>
<speed>5.070000</speed>
</trkpt>
<trkpt lat="55.721470" lon="26.161200">
<ele>153.2</ele>
<time>2010-07-18T06:52:59Z</time>
<desc>lat.=55.721470, lon.=26.161200, Alt.=152.080200m. Speed=18.288000m/h.</desc>
<speed>5.080000</speed>
</trkpt>
<trkpt lat="55.723614" lon="26.162294">
<ele>157.0</ele>
<time>2010-07-18T06:53:56Z</time>
<desc>lat.=55.723614, lon.=26.162294, Alt.=160.732544m. Speed=18.252001m/h.</desc>
<speed>5.070000</speed>
</trkpt>
<trkpt lat="55.726608" lon="26.162474">
<ele>157.7</ele>
<time>2010-07-18T06:54:56Z</time>
<desc>lat.=55.726608, lon.=26.162474, Alt.=158.701294m. Speed=15.156000m/h.</desc>
<speed>4.210000</speed>
</trkpt>
<trkpt lat="55.727570" lon="26.162910">
<ele>159.1</ele>
<time>2010-07-18T06:55:22Z</time>
<desc>lat.=55.727570, lon.=26.162910, Alt.=161.627075m. Speed=6.948000m/h.</desc>
<speed>1.930000</speed>
</trkpt>
<trkpt lat="55.729000" lon="26.165680">
<ele>159.1</ele>
<time>2010-07-18T06:56:43Z</time>
<desc>lat.=55.729000, lon.=26.165680, Alt.=158.615356m. Speed=26.892000m/h.</desc>
<speed>7.470000</speed>
</trkpt>
<trkpt lat="55.730019" lon="26.166935">
<ele>152.6</ele>
<time>2010-07-18T06:57:03Z</time>
<desc>lat.=55.730019, lon.=26.166935, Alt.=153.267700m. Speed=17.964001m/h.</desc>
<speed>4.990000</speed>
</trkpt>
<trkpt lat="55.730476" lon="26.168833">
<ele>150.1</ele>
<time>2010-07-18T06:57:32Z</time>
<desc>lat.=55.730476, lon.=26.168833, Alt.=152.974731m. Speed=17.028000m/h.</desc>
<speed>4.730000</speed>
</trkpt>
<trkpt lat="55.732677" lon="26.174358">
<ele>159.5</ele>
<time>2010-07-18T06:58:57Z</time>
<desc>lat.=55.732677, lon.=26.174358, Alt.=166.521606m. Speed=15.336000m/h.</desc>
<speed>4.260000</speed>
</trkpt>
<trkpt lat="55.733494" lon="26.179441">
<ele>154.3</ele>
<time>2010-07-18T06:59:51Z</time>
<desc>lat.=55.733494, lon.=26.179441, Alt.=149.115356m. Speed=22.212000m/h.</desc>
<speed>6.170000</speed>
</trkpt>
<trkpt lat="55.733414" lon="26.183245">
<ele>150.5</ele>
<time>2010-07-18T07:00:34Z</time>
<desc>lat.=55.733414, lon.=26.183245, Alt.=144.759888m. Speed=20.412001m/h.</desc>
<speed>5.670000</speed>
</trkpt>
<trkpt lat="55.733517" lon="26.185240">
<ele>147.0</ele>
<time>2010-07-18T07:00:54Z</time>
<desc>lat.=55.733517, lon.=26.185240, Alt.=144.095825m. Speed=15.840000m/h.</desc>
<speed>4.400000</speed>
</trkpt>
<trkpt lat="55.735455" lon="26.193480">
<ele>143.3</ele>
<time>2010-07-18T07:02:38Z</time>
<desc>lat.=55.735455, lon.=26.193480, Alt.=137.599731m. Speed=28.332001m/h.</desc>
<speed>7.870000</speed>
</trkpt>
<trkpt lat="55.735729" lon="26.198290">
<ele>147.6</ele>
<time>2010-07-18T07:03:45Z</time>
<desc>lat.=55.735729, lon.=26.198290, Alt.=143.517700m. Speed=8.280000m/h.</desc>
<speed>2.300000</speed>
</trkpt>
<trkpt lat="55.736130" lon="26.200283">
<ele>148.4</ele>
<time>2010-07-18T07:04:32Z</time>
<desc>lat.=55.736130, lon.=26.200283, Alt.=156.830200m. Speed=12.132000m/h.</desc>
<speed>3.370000</speed>
</trkpt>
<trkpt lat="55.736065" lon="26.208897">
<ele>133.1</ele>
<time>2010-07-18T07:05:55Z</time>
<desc>lat.=55.736065, lon.=26.208897, Alt.=131.630981m. Speed=34.307999m/h.</desc>
<speed>9.530000</speed>
</trkpt>
<trkpt lat="55.736755" lon="26.214500">
<ele>132.7</ele>
<time>2010-07-18T07:06:41Z</time>
<desc>lat.=55.736755, lon.=26.214500, Alt.=131.880981m. Speed=22.896000m/h.</desc>
<speed>6.360000</speed>
</trkpt>
<trkpt lat="55.737255" lon="26.216410">
<ele>132.9</ele>
<time>2010-07-18T07:07:20Z</time>
<desc>lat.=55.737255, lon.=26.216410, Alt.=130.177856m. Speed=6.696000m/h.</desc>
<speed>1.860000</speed>
</trkpt>
<trkpt lat="55.736744" lon="26.218817">
<ele>131.5</ele>
<time>2010-07-18T07:08:15Z</time>
<desc>lat.=55.736744, lon.=26.218817, Alt.=129.173950m. Speed=0.216000m/h.</desc>
<speed>0.060000</speed>
</trkpt>
<trkpt lat="55.737312" lon="26.216503">
<ele>133.4</ele>
<time>2010-07-18T07:38:38Z</time>
<desc>lat.=55.737312, lon.=26.216503, Alt.=130.740356m. Speed=6.192000m/h.</desc>
<speed>1.720000</speed>
</trkpt>
<trkpt lat="55.740280" lon="26.220978">
<ele>136.7</ele>
<time>2010-07-18T07:40:30Z</time>
<desc>lat.=55.740280, lon.=26.220978, Alt.=136.447388m. Speed=20.736000m/h.</desc>
<speed>5.760000</speed>
</trkpt>
<trkpt lat="55.740807" lon="26.222382">
<ele>140.0</ele>
<time>2010-07-18T07:40:50Z</time>
<desc>lat.=55.740807, lon.=26.222382, Alt.=141.849731m. Speed=16.452000m/h.</desc>
<speed>4.570000</speed>
</trkpt>
<trkpt lat="55.741421" lon="26.224873">
<ele>144.2</ele>
<time>2010-07-18T07:41:26Z</time>
<desc>lat.=55.741421, lon.=26.224873, Alt.=144.146606m. Speed=14.976000m/h.</desc>
<speed>4.160000</speed>
</trkpt>
<trkpt lat="55.742443" lon="26.227303">
<ele>139.6</ele>
<time>2010-07-18T07:41:59Z</time>
<desc>lat.=55.742443, lon.=26.227303, Alt.=133.963013m. Speed=38.124001m/h.</desc>
<speed>10.590000</speed>
</trkpt>
<trkpt lat="55.743645" lon="26.233700">
<ele>146.0</ele>
<time>2010-07-18T07:43:29Z</time>
<desc>lat.=55.743645, lon.=26.233700, Alt.=149.517700m. Speed=6.300000m/h.</desc>
<speed>1.750000</speed>
</trkpt>
<trkpt lat="55.742233" lon="26.236938">
<ele>142.4</ele>
<time>2010-07-18T07:44:46Z</time>
<desc>lat.=55.742233, lon.=26.236938, Alt.=131.623169m. Speed=9.864000m/h.</desc>
<speed>2.740000</speed>
</trkpt>
<trkpt lat="55.740845" lon="26.241194">
<ele>144.2</ele>
<time>2010-07-18T07:45:51Z</time>
<desc>lat.=55.740845, lon.=26.241194, Alt.=135.213013m. Speed=16.667999m/h.</desc>
<speed>4.630000</speed>
</trkpt>
<trkpt lat="55.738228" lon="26.244213">
<ele>154.2</ele>
<time>2010-07-18T07:47:10Z</time>
<desc>lat.=55.738228, lon.=26.244213, Alt.=156.279419m. Speed=12.708000m/h.</desc>
<speed>3.530000</speed>
</trkpt>
<trkpt lat="55.732655" lon="26.245058">
<ele>155.9</ele>
<time>2010-07-18T07:50:25Z</time>
<desc>lat.=55.732655, lon.=26.245058, Alt.=157.759888m. Speed=0.288000m/h.</desc>
<speed>0.080000</speed>
</trkpt>
<trkpt lat="55.732372" lon="26.244505">
<ele>154.3</ele>
<time>2010-07-18T07:50:52Z</time>
<desc>lat.=55.732372, lon.=26.244505, Alt.=158.697388m. Speed=14.184000m/h.</desc>
<speed>3.940000</speed>
</trkpt>
<trkpt lat="55.731937" lon="26.244301">
<ele>153.6</ele>
<time>2010-07-18T07:51:03Z</time>
<desc>lat.=55.731937, lon.=26.244301, Alt.=155.783325m. Speed=16.992001m/h.</desc>
<speed>4.720000</speed>
</trkpt>
<trkpt lat="55.730991" lon="26.244959">
<ele>155.8</ele>
<time>2010-07-18T07:51:34Z</time>
<desc>lat.=55.730991, lon.=26.244959, Alt.=160.224731m. Speed=7.920000m/h.</desc>
<speed>2.200000</speed>
</trkpt>
<trkpt lat="55.730560" lon="26.243973">
<ele>154.6</ele>
<time>2010-07-18T07:52:05Z</time>
<desc>lat.=55.730560, lon.=26.243973, Alt.=163.709106m. Speed=18.900000m/h.</desc>
<speed>5.250000</speed>
</trkpt>
<trkpt lat="55.729893" lon="26.244019">
<ele>150.0</ele>
<time>2010-07-18T07:52:19Z</time>
<desc>lat.=55.729893, lon.=26.244019, Alt.=156.283325m. Speed=11.520000m/h.</desc>
<speed>3.200000</speed>
</trkpt>
<trkpt lat="55.729633" lon="26.243666">
<ele>148.8</ele>
<time>2010-07-18T07:52:38Z</time>
<desc>lat.=55.729633, lon.=26.243666, Alt.=151.525513m. Speed=2.196000m/h.</desc>
<speed>0.610000</speed>
</trkpt>
<trkpt lat="55.729565" lon="26.244024">
<ele>149.3</ele>
<time>2010-07-18T08:04:49Z</time>
<desc>lat.=55.729565, lon.=26.244024, Alt.=178.798950m. Speed=0.144000m/h.</desc>
<speed>0.040000</speed>
</trkpt>
<trkpt lat="55.729668" lon="26.243826">
<ele>149.3</ele>
<time>2010-07-18T08:05:36Z</time>
<desc>lat.=55.729668, lon.=26.243826, Alt.=167.869263m. Speed=1.404000m/h.</desc>
<speed>0.390000</speed>
</trkpt>
<trkpt lat="55.729565" lon="26.243338">
<ele>147.9</ele>
<time>2010-07-18T08:06:46Z</time>
<desc>lat.=55.729565, lon.=26.243338, Alt.=150.377075m. Speed=0.288000m/h.</desc>
<speed>0.080000</speed>
</trkpt>
<trkpt lat="55.729744" lon="26.243204">
<ele>147.9</ele>
<time>2010-07-18T08:21:18Z</time>
<desc>lat.=55.729744, lon.=26.243204, Alt.=166.142700m. Speed=0.108000m/h.</desc>
<speed>0.030000</speed>
</trkpt>
<trkpt lat="55.729649" lon="26.243992">
<ele>149.5</ele>
<time>2010-07-18T08:30:28Z</time>
<desc>lat.=55.729649, lon.=26.243992, Alt.=152.095825m. Speed=14.796000m/h.</desc>
<speed>4.110000</speed>
</trkpt>
<trkpt lat="55.725826" lon="26.246283">
<ele>137.3</ele>
<time>2010-07-18T08:31:50Z</time>
<desc>lat.=55.725826, lon.=26.246283, Alt.=133.322388m. Speed=30.959999m/h.</desc>
<speed>8.600000</speed>
</trkpt>
<trkpt lat="55.724602" lon="26.246700">
<ele>137.3</ele>
<time>2010-07-18T08:32:07Z</time>
<desc>lat.=55.724602, lon.=26.246700, Alt.=132.021606m. Speed=25.271999m/h.</desc>
<speed>7.020000</speed>
</trkpt>
<trkpt lat="55.724148" lon="26.246618">
<ele>135.2</ele>
<time>2010-07-18T08:32:15Z</time>
<desc>lat.=55.724148, lon.=26.246618, Alt.=131.560669m. Speed=20.628000m/h.</desc>
<speed>5.730000</speed>
</trkpt>
<trkpt lat="55.723576" lon="26.246046">
<ele>137.2</ele>
<time>2010-07-18T08:32:31Z</time>
<desc>lat.=55.723576, lon.=26.246046, Alt.=131.224731m. Speed=13.536000m/h.</desc>
<speed>3.760000</speed>
</trkpt>
<trkpt lat="55.723442" lon="26.245565">
<ele>137.3</ele>
<time>2010-07-18T08:32:54Z</time>
<desc>lat.=55.723442, lon.=26.245565, Alt.=129.787231m. Speed=12.996000m/h.</desc>
<speed>3.610000</speed>
</trkpt>
<trkpt lat="55.723606" lon="26.245056">
<ele>137.2</ele>
<time>2010-07-18T08:33:02Z</time>
<desc>lat.=55.723606, lon.=26.245056, Alt.=128.146606m. Speed=19.224001m/h.</desc>
<speed>5.340000</speed>
</trkpt>
<trkpt lat="55.724018" lon="26.245066">
<ele>135.6</ele>
<time>2010-07-18T08:33:10Z</time>
<desc>lat.=55.724018, lon.=26.245066, Alt.=127.770569m. Speed=23.760000m/h.</desc>
<speed>6.600000</speed>
</trkpt>
<trkpt lat="55.724133" lon="26.245726">
<ele>133.8</ele>
<time>2010-07-18T08:33:16Z</time>
<desc>lat.=55.724133, lon.=26.245726, Alt.=127.987366m. Speed=27.648001m/h.</desc>
<speed>7.680000</speed>
</trkpt>
<trkpt lat="55.722973" lon="26.249950">
<ele>145.4</ele>
<time>2010-07-18T08:34:31Z</time>
<desc>lat.=55.722973, lon.=26.249950, Alt.=138.377075m. Speed=10.152000m/h.</desc>
<speed>2.820000</speed>
</trkpt>
<trkpt lat="55.720890" lon="26.252880">
<ele>136.5</ele>
<time>2010-07-18T08:35:21Z</time>
<desc>lat.=55.720890, lon.=26.252880, Alt.=134.693481m. Speed=15.696000m/h.</desc>
<speed>4.360000</speed>
</trkpt>
<trkpt lat="55.719604" lon="26.256186">
<ele>146.0</ele>
<time>2010-07-18T08:36:21Z</time>
<desc>lat.=55.719604, lon.=26.256186, Alt.=137.220825m. Speed=15.912000m/h.</desc>
<speed>4.420000</speed>
</trkpt>
<trkpt lat="55.717342" lon="26.258638">
<ele>151.2</ele>
<time>2010-07-18T08:37:31Z</time>
<desc>lat.=55.717342, lon.=26.258638, Alt.=150.275513m. Speed=14.400000m/h.</desc>
<speed>4.000000</speed>
</trkpt>
<trkpt lat="55.716511" lon="26.260221">
<ele>149.5</ele>
<time>2010-07-18T08:38:06Z</time>
<desc>lat.=55.716511, lon.=26.260221, Alt.=152.193481m. Speed=14.256000m/h.</desc>
<speed>3.960000</speed>
</trkpt>
<trkpt lat="55.710484" lon="26.284592">
<ele>170.6</ele>
<time>2010-07-18T08:45:25Z</time>
<desc>lat.=55.710484, lon.=26.284592, Alt.=167.693481m. Speed=28.440001m/h.</desc>
<speed>7.900000</speed>
</trkpt>
<trkpt lat="55.708118" lon="26.293571">
<ele>167.3</ele>
<time>2010-07-18T08:47:21Z</time>
<desc>lat.=55.708118, lon.=26.293571, Alt.=165.064575m. Speed=14.292000m/h.</desc>
<speed>3.970000</speed>
</trkpt>
<trkpt lat="55.707531" lon="26.295462">
<ele>167.9</ele>
<time>2010-07-18T08:47:50Z</time>
<desc>lat.=55.707531, lon.=26.295462, Alt.=165.627075m. Speed=18.719999m/h.</desc>
<speed>5.200000</speed>
</trkpt>
<trkpt lat="55.706959" lon="26.296690">
<ele>171.6</ele>
<time>2010-07-18T08:48:13Z</time>
<desc>lat.=55.706959, lon.=26.296690, Alt.=169.322388m. Speed=11.808000m/h.</desc>
<speed>3.280000</speed>
</trkpt>
<trkpt lat="55.705452" lon="26.298712">
<ele>177.0</ele>
<time>2010-07-18T08:49:11Z</time>
<desc>lat.=55.705452, lon.=26.298712, Alt.=181.400513m. Speed=14.148000m/h.</desc>
<speed>3.930000</speed>
</trkpt>
<trkpt lat="55.685799" lon="26.319166">
<ele>166.2</ele>
<time>2010-07-18T09:00:48Z</time>
<desc>lat.=55.685799, lon.=26.319166, Alt.=169.908325m. Speed=16.955999m/h.</desc>
<speed>4.710000</speed>
</trkpt>
<trkpt lat="55.676731" lon="26.326376">
<ele>165.3</ele>
<time>2010-07-18T09:06:15Z</time>
<desc>lat.=55.676731, lon.=26.326376, Alt.=162.697388m. Speed=5.292000m/h.</desc>
<speed>1.470000</speed>
</trkpt>
<trkpt lat="55.676327" lon="26.333614">
<ele>168.3</ele>
<time>2010-07-18T09:08:13Z</time>
<desc>lat.=55.676327, lon.=26.333614, Alt.=165.314575m. Speed=14.112000m/h.</desc>
<speed>3.920000</speed>
</trkpt>
<trkpt lat="55.676342" lon="26.335569">
<ele>168.7</ele>
<time>2010-07-18T09:08:55Z</time>
<desc>lat.=55.676342, lon.=26.335569, Alt.=167.505981m. Speed=7.092000m/h.</desc>
<speed>1.970000</speed>
</trkpt>
<trkpt lat="55.675579" lon="26.335855">
<ele>164.6</ele>
<time>2010-07-18T09:09:17Z</time>
<desc>lat.=55.675579, lon.=26.335855, Alt.=164.095825m. Speed=11.844000m/h.</desc>
<speed>3.290000</speed>
</trkpt>
<trkpt lat="55.674881" lon="26.336496">
<ele>165.6</ele>
<time>2010-07-18T09:09:37Z</time>
<desc>lat.=55.674881, lon.=26.336496, Alt.=159.267700m. Speed=13.608000m/h.</desc>
<speed>3.780000</speed>
</trkpt>
<trkpt lat="55.674629" lon="26.336519">
<ele>164.2</ele>
<time>2010-07-18T09:09:52Z</time>
<desc>lat.=55.674629, lon.=26.336519, Alt.=158.357544m. Speed=0.504000m/h.</desc>
<speed>0.140000</speed>
</trkpt>
<trkpt lat="55.674595" lon="26.336010">
<ele>159.4</ele>
<time>2010-07-18T09:10:40Z</time>
<desc>lat.=55.674595, lon.=26.336010, Alt.=152.240356m. Speed=2.124000m/h.</desc>
<speed>0.590000</speed>
</trkpt>
<trkpt lat="55.674568" lon="26.336164">
<ele>160.5</ele>
<time>2010-07-18T09:12:54Z</time>
<desc>lat.=55.674568, lon.=26.336164, Alt.=152.759888m. Speed=1.188000m/h.</desc>
<speed>0.330000</speed>
</trkpt>
<trkpt lat="55.674820" lon="26.336575">
<ele>165.2</ele>
<time>2010-07-18T09:13:38Z</time>
<desc>lat.=55.674820, lon.=26.336575, Alt.=158.666138m. Speed=9.900000m/h.</desc>
<speed>2.750000</speed>
</trkpt>
<trkpt lat="55.675564" lon="26.335966">
<ele>164.0</ele>
<time>2010-07-18T09:14:13Z</time>
<desc>lat.=55.675564, lon.=26.335966, Alt.=165.017700m. Speed=8.100000m/h.</desc>
<speed>2.250000</speed>
</trkpt>
<trkpt lat="55.676357" lon="26.335806">
<ele>168.4</ele>
<time>2010-07-18T09:14:54Z</time>
<desc>lat.=55.676357, lon.=26.335806, Alt.=165.970825m. Speed=2.952000m/h.</desc>
<speed>0.820000</speed>
</trkpt>
<trkpt lat="55.676811" lon="26.339012">
<ele>172.1</ele>
<time>2010-07-18T09:16:00Z</time>
<desc>lat.=55.676811, lon.=26.339012, Alt.=174.431763m. Speed=14.616000m/h.</desc>
<speed>4.060000</speed>
</trkpt>
<trkpt lat="55.678207" lon="26.343161">
<ele>179.2</ele>
<time>2010-07-18T09:17:20Z</time>
<desc>lat.=55.678207, lon.=26.343161, Alt.=159.443481m. Speed=8.856000m/h.</desc>
<speed>2.460000</speed>
</trkpt>
<trkpt lat="55.678364" lon="26.344406">
<ele>182.5</ele>
<time>2010-07-18T09:17:36Z</time>
<desc>lat.=55.678364, lon.=26.344406, Alt.=144.572388m. Speed=17.604000m/h.</desc>
<speed>4.890000</speed>
</trkpt>
<trkpt lat="55.678566" lon="26.344875">
<ele>181.6</ele>
<time>2010-07-18T09:17:45Z</time>
<desc>lat.=55.678566, lon.=26.344875, Alt.=153.630981m. Speed=8.388000m/h.</desc>
<speed>2.330000</speed>
</trkpt>
<trkpt lat="55.678703" lon="26.344988">
<ele>178.6</ele>
<time>2010-07-18T09:17:52Z</time>
<desc>lat.=55.678703, lon.=26.344988, Alt.=158.728638m. Speed=2.268000m/h.</desc>
<speed>0.630000</speed>
</trkpt>
<trkpt lat="55.680378" lon="26.343832">
<ele>173.7</ele>
<time>2010-07-18T09:19:45Z</time>
<desc>lat.=55.680378, lon.=26.343832, Alt.=172.338013m. Speed=0.432000m/h.</desc>
<speed>0.120000</speed>
</trkpt>
<trkpt lat="55.679989" lon="26.344112">
<ele>175.2</ele>
<time>2010-07-18T09:20:28Z</time>
<desc>lat.=55.679989, lon.=26.344112, Alt.=175.681763m. Speed=2.736000m/h.</desc>
<speed>0.760000</speed>
</trkpt>
<trkpt lat="55.681881" lon="26.345409">
<ele>172.8</ele>
<time>2010-07-18T09:21:27Z</time>
<desc>lat.=55.681881, lon.=26.345409, Alt.=165.388794m. Speed=16.020000m/h.</desc>
<speed>4.450000</speed>
</trkpt>
<trkpt lat="55.683632" lon="26.344021">
<ele>159.4</ele>
<time>2010-07-18T09:22:03Z</time>
<desc>lat.=55.683632, lon.=26.344021, Alt.=152.041138m. Speed=6.696000m/h.</desc>
<speed>1.860000</speed>
</trkpt>
<trkpt lat="55.683590" lon="26.343765">
<ele>157.5</ele>
<time>2010-07-18T09:22:18Z</time>
<desc>lat.=55.683590, lon.=26.343765, Alt.=152.048950m. Speed=0.432000m/h.</desc>
<speed>0.120000</speed>
</trkpt>
<trkpt lat="55.684544" lon="26.344103">
<ele>156.9</ele>
<time>2010-07-18T09:23:07Z</time>
<desc>lat.=55.684544, lon.=26.344103, Alt.=154.224731m. Speed=14.652000m/h.</desc>
<speed>4.070000</speed>
</trkpt>
<trkpt lat="55.685604" lon="26.342722">
<ele>156.0</ele>
<time>2010-07-18T09:23:53Z</time>
<desc>lat.=55.685604, lon.=26.342722, Alt.=164.361450m. Speed=0.180000m/h.</desc>
<speed>0.050000</speed>
</trkpt>
<trkpt lat="55.684647" lon="26.344120">
<ele>157.3</ele>
<time>2010-07-18T09:24:43Z</time>
<desc>lat.=55.684647, lon.=26.344120, Alt.=157.713013m. Speed=10.008000m/h.</desc>
<speed>2.780000</speed>
</trkpt>
<trkpt lat="55.683617" lon="26.344051">
<ele>159.0</ele>
<time>2010-07-18T09:25:15Z</time>
<desc>lat.=55.683617, lon.=26.344051, Alt.=160.306763m. Speed=10.908000m/h.</desc>
<speed>3.030000</speed>
</trkpt>
<trkpt lat="55.681946" lon="26.345304">
<ele>170.8</ele>
<time>2010-07-18T09:27:18Z</time>
<desc>lat.=55.681946, lon.=26.345304, Alt.=160.005981m. Speed=4.752000m/h.</desc>
<speed>1.320000</speed>
</trkpt>
<trkpt lat="55.680000" lon="26.344229">
<ele>176.9</ele>
<time>2010-07-18T09:29:06Z</time>
<desc>lat.=55.680000, lon.=26.344229, Alt.=173.548950m. Speed=21.672001m/h.</desc>
<speed>6.020000</speed>
</trkpt>
<trkpt lat="55.678711" lon="26.345198">
<ele>178.7</ele>
<time>2010-07-18T09:29:39Z</time>
<desc>lat.=55.678711, lon.=26.345198, Alt.=166.408325m. Speed=9.936000m/h.</desc>
<speed>2.760000</speed>
</trkpt>
<trkpt lat="55.679333" lon="26.349600">
<ele>186.4</ele>
<time>2010-07-18T09:31:56Z</time>
<desc>lat.=55.679333, lon.=26.349600, Alt.=153.056763m. Speed=14.400000m/h.</desc>
<speed>4.000000</speed>
</trkpt>
<trkpt lat="55.680397" lon="26.353468">
<ele>160.9</ele>
<time>2010-07-18T09:32:30Z</time>
<desc>lat.=55.680397, lon.=26.353468, Alt.=132.623169m. Speed=32.400002m/h.</desc>
<speed>9.000000</speed>
</trkpt>
<trkpt lat="55.682194" lon="26.358805">
<ele>174.2</ele>
<time>2010-07-18T09:33:27Z</time>
<desc>lat.=55.682194, lon.=26.358805, Alt.=136.099731m. Speed=21.672001m/h.</desc>
<speed>6.020000</speed>
</trkpt>
<trkpt lat="55.684505" lon="26.367870">
<ele>152.5</ele>
<time>2010-07-18T09:34:50Z</time>
<desc>lat.=55.684505, lon.=26.367870, Alt.=140.963013m. Speed=24.299999m/h.</desc>
<speed>6.750000</speed>
</trkpt>
<trkpt lat="55.684368" lon="26.370642">
<ele>153.2</ele>
<time>2010-07-18T09:35:25Z</time>
<desc>lat.=55.684368, lon.=26.370642, Alt.=130.732544m. Speed=10.440000m/h.</desc>
<speed>2.900000</speed>
</trkpt>
<trkpt lat="55.683723" lon="26.375139">
<ele>148.2</ele>
<time>2010-07-18T09:36:56Z</time>
<desc>lat.=55.683723, lon.=26.375139, Alt.=138.517700m. Speed=12.132000m/h.</desc>
<speed>3.370000</speed>
</trkpt>
<trkpt lat="55.683681" lon="26.378681">
<ele>144.1</ele>
<time>2010-07-18T09:37:41Z</time>
<desc>lat.=55.683681, lon.=26.378681, Alt.=137.478638m. Speed=12.636000m/h.</desc>
<speed>3.510000</speed>
</trkpt>
<trkpt lat="55.683525" lon="26.379974">
<ele>145.7</ele>
<time>2010-07-18T09:38:07Z</time>
<desc>lat.=55.683525, lon.=26.379974, Alt.=144.779419m. Speed=12.456000m/h.</desc>
<speed>3.460000</speed>
</trkpt>
<trkpt lat="55.682907" lon="26.381506">
<ele>148.0</ele>
<time>2010-07-18T09:38:40Z</time>
<desc>lat.=55.682907, lon.=26.381506, Alt.=153.435669m. Speed=12.816000m/h.</desc>
<speed>3.560000</speed>
</trkpt>
<trkpt lat="55.681408" lon="26.383957">
<ele>146.3</ele>
<time>2010-07-18T09:39:34Z</time>
<desc>lat.=55.681408, lon.=26.383957, Alt.=150.232544m. Speed=21.024000m/h.</desc>
<speed>5.840000</speed>
</trkpt>
<trkpt lat="55.681034" lon="26.385532">
<ele>143.8</ele>
<time>2010-07-18T09:39:50Z</time>
<desc>lat.=55.681034, lon.=26.385532, Alt.=147.478638m. Speed=27.756001m/h.</desc>
<speed>7.710000</speed>
</trkpt>
<trkpt lat="55.682003" lon="26.402828">
<ele>157.2</ele>
<time>2010-07-18T09:45:51Z</time>
<desc>lat.=55.682003, lon.=26.402828, Alt.=144.396606m. Speed=30.708000m/h.</desc>
<speed>8.530000</speed>
</trkpt>
<trkpt lat="55.682747" lon="26.407740">
<ele>168.6</ele>
<time>2010-07-18T09:46:38Z</time>
<desc>lat.=55.682747, lon.=26.407740, Alt.=147.986450m. Speed=19.728001m/h.</desc>
<speed>5.480000</speed>
</trkpt>
<trkpt lat="55.688858" lon="26.433968">
<ele>146.9</ele>
<time>2010-07-18T09:51:35Z</time>
<desc>lat.=55.688858, lon.=26.433968, Alt.=149.142700m. Speed=10.512000m/h.</desc>
<speed>2.920000</speed>
</trkpt>
<trkpt lat="55.689022" lon="26.436390">
<ele>149.6</ele>
<time>2010-07-18T09:52:51Z</time>
<desc>lat.=55.689022, lon.=26.436390, Alt.=145.740356m. Speed=21.636000m/h.</desc>
<speed>6.010000</speed>
</trkpt>
<trkpt lat="55.688591" lon="26.445824">
<ele>142.6</ele>
<time>2010-07-18T09:54:34Z</time>
<desc>lat.=55.688591, lon.=26.445824, Alt.=145.080200m. Speed=14.472000m/h.</desc>
<speed>4.020000</speed>
</trkpt>
<trkpt lat="55.688789" lon="26.448364">
<ele>144.2</ele>
<time>2010-07-18T09:55:13Z</time>
<desc>lat.=55.688789, lon.=26.448364, Alt.=154.470825m. Speed=13.932000m/h.</desc>
<speed>3.870000</speed>
</trkpt>
<trkpt lat="55.689392" lon="26.450731">
<ele>143.6</ele>
<time>2010-07-18T09:55:39Z</time>
<desc>lat.=55.689392, lon.=26.450731, Alt.=151.482544m. Speed=21.851999m/h.</desc>
<speed>6.070000</speed>
</trkpt>
<trkpt lat="55.692734" lon="26.458118">
<ele>135.4</ele>
<time>2010-07-18T09:57:43Z</time>
<desc>lat.=55.692734, lon.=26.458118, Alt.=141.084106m. Speed=21.600000m/h.</desc>
<speed>6.000000</speed>
</trkpt>
<trkpt lat="55.693287" lon="26.460049">
<ele>137.9</ele>
<time>2010-07-18T09:58:09Z</time>
<desc>lat.=55.693287, lon.=26.460049, Alt.=140.306763m. Speed=15.228000m/h.</desc>
<speed>4.230000</speed>
</trkpt>
<trkpt lat="55.693642" lon="26.460302">
<ele>138.4</ele>
<time>2010-07-18T10:16:45Z</time>
<desc>lat.=55.693642, lon.=26.460302, Alt.=139.537231m. Speed=0.000000m/h.</desc>
<speed>0.000000</speed>
</trkpt>
<trkpt lat="55.694141" lon="26.461433">
<ele>138.8</ele>
<time>2010-07-18T10:23:04Z</time>
<desc>lat.=55.694141, lon.=26.461433, Alt.=137.482544m. Speed=10.080000m/h.</desc>
<speed>2.800000</speed>
</trkpt>
<trkpt lat="55.693863" lon="26.461725">
<ele>138.2</ele>
<time>2010-07-18T10:23:13Z</time>
<desc>lat.=55.693863, lon.=26.461725, Alt.=136.310669m. Speed=13.896000m/h.</desc>
<speed>3.860000</speed>
</trkpt>
<trkpt lat="55.692818" lon="26.464434">
<ele>138.2</ele>
<time>2010-07-18T10:24:13Z</time>
<desc>lat.=55.692818, lon.=26.464434, Alt.=137.810669m. Speed=15.768000m/h.</desc>
<speed>4.380000</speed>
</trkpt>
<trkpt lat="55.691257" lon="26.467236">
<ele>138.3</ele>
<time>2010-07-18T10:25:02Z</time>
<desc>lat.=55.691257, lon.=26.467236, Alt.=129.412231m. Speed=14.940000m/h.</desc>
<speed>4.150000</speed>
</trkpt>
<trkpt lat="55.690323" lon="26.467537">
<ele>141.9</ele>
<time>2010-07-18T10:25:34Z</time>
<desc>lat.=55.690323, lon.=26.467537, Alt.=135.306763m. Speed=11.088000m/h.</desc>
<speed>3.080000</speed>
</trkpt>
<trkpt lat="55.688694" lon="26.466932">
<ele>144.4</ele>
<time>2010-07-18T10:26:29Z</time>
<desc>lat.=55.688694, lon.=26.466932, Alt.=134.466919m. Speed=11.628000m/h.</desc>
<speed>3.230000</speed>
</trkpt>
<trkpt lat="55.688232" lon="26.467073">
<ele>143.1</ele>
<time>2010-07-18T10:26:41Z</time>
<desc>lat.=55.688232, lon.=26.467073, Alt.=142.537231m. Speed=16.344000m/h.</desc>
<speed>4.540000</speed>
</trkpt>
<trkpt lat="55.685909" lon="26.472202">
<ele>144.6</ele>
<time>2010-07-18T10:28:13Z</time>
<desc>lat.=55.685909, lon.=26.472202, Alt.=139.709106m. Speed=17.172001m/h.</desc>
<speed>4.770000</speed>
</trkpt>
<trkpt lat="55.684135" lon="26.472942">
<ele>148.4</ele>
<time>2010-07-18T10:29:00Z</time>
<desc>lat.=55.684135, lon.=26.472942, Alt.=145.080200m. Speed=18.756001m/h.</desc>
<speed>5.210000</speed>
</trkpt>
<trkpt lat="55.683739" lon="26.473335">
<ele>149.7</ele>
<time>2010-07-18T10:29:10Z</time>
<desc>lat.=55.683739, lon.=26.473335, Alt.=145.654419m. Speed=16.992001m/h.</desc>
<speed>4.720000</speed>
</trkpt>
<trkpt lat="55.683525" lon="26.473907">
<ele>149.7</ele>
<time>2010-07-18T10:29:20Z</time>
<desc>lat.=55.683525, lon.=26.473907, Alt.=147.138794m. Speed=14.940000m/h.</desc>
<speed>4.150000</speed>
</trkpt>
<trkpt lat="55.683250" lon="26.475031">
<ele>150.8</ele>
<time>2010-07-18T10:29:39Z</time>
<desc>lat.=55.683250, lon.=26.475031, Alt.=144.080200m. Speed=14.220000m/h.</desc>
<speed>3.950000</speed>
</trkpt>
<trkpt lat="55.682823" lon="26.479136">
<ele>155.0</ele>
<time>2010-07-18T10:30:30Z</time>
<desc>lat.=55.682823, lon.=26.479136, Alt.=141.826294m. Speed=12.348000m/h.</desc>
<speed>3.430000</speed>
</trkpt>
<trkpt lat="55.682804" lon="26.482956">
<ele>149.2</ele>
<time>2010-07-18T10:31:12Z</time>
<desc>lat.=55.682804, lon.=26.482956, Alt.=151.720825m. Speed=29.556000m/h.</desc>
<speed>8.210000</speed>
</trkpt>
<trkpt lat="55.682610" lon="26.486189">
<ele>138.0</ele>
<time>2010-07-18T10:31:36Z</time>
<desc>lat.=55.682610, lon.=26.486189, Alt.=127.680725m. Speed=30.059999m/h.</desc>
<speed>8.350000</speed>
</trkpt>
<trkpt lat="55.682636" lon="26.494247">
<ele>140.9</ele>
<time>2010-07-18T10:33:07Z</time>
<desc>lat.=55.682636, lon.=26.494247, Alt.=142.470825m. Speed=33.444000m/h.</desc>
<speed>9.290000</speed>
</trkpt>
<trkpt lat="55.682030" lon="26.498425">
<ele>143.6</ele>
<time>2010-07-18T10:33:52Z</time>
<desc>lat.=55.682030, lon.=26.498425, Alt.=137.681763m. Speed=17.028000m/h.</desc>
<speed>4.730000</speed>
</trkpt>
<trkpt lat="55.681789" lon="26.499207">
<ele>150.2</ele>
<time>2010-07-18T10:34:05Z</time>
<desc>lat.=55.681789, lon.=26.499207, Alt.=142.486450m. Speed=10.620000m/h.</desc>
<speed>2.950000</speed>
</trkpt>
<trkpt lat="55.673584" lon="26.507475">
<ele>171.2</ele>
<time>2010-07-18T10:41:43Z</time>
<desc>lat.=55.673584, lon.=26.507475, Alt.=171.935669m. Speed=13.788000m/h.</desc>
<speed>3.830000</speed>
</trkpt>
<trkpt lat="55.669029" lon="26.511509">
<ele>153.5</ele>
<time>2010-07-18T10:43:20Z</time>
<desc>lat.=55.669029, lon.=26.511509, Alt.=152.599731m. Speed=33.768002m/h.</desc>
<speed>9.380000</speed>
</trkpt>
<trkpt lat="55.668259" lon="26.512493">
<ele>153.0</ele>
<time>2010-07-18T10:43:34Z</time>
<desc>lat.=55.668259, lon.=26.512493, Alt.=153.787231m. Speed=24.480000m/h.</desc>
<speed>6.800000</speed>
</trkpt>
<trkpt lat="55.666702" lon="26.515463">
<ele>153.8</ele>
<time>2010-07-18T10:44:15Z</time>
<desc>lat.=55.666702, lon.=26.515463, Alt.=155.779419m. Speed=16.091999m/h.</desc>
<speed>4.470000</speed>
</trkpt>
<trkpt lat="55.666206" lon="26.516827">
<ele>154.1</ele>
<time>2010-07-18T10:44:35Z</time>
<desc>lat.=55.666206, lon.=26.516827, Alt.=155.107544m. Speed=14.256000m/h.</desc>
<speed>3.960000</speed>
</trkpt>
<trkpt lat="55.665245" lon="26.523676">
<ele>150.5</ele>
<time>2010-07-18T10:46:06Z</time>
<desc>lat.=55.665245, lon.=26.523676, Alt.=150.142700m. Speed=18.648001m/h.</desc>
<speed>5.180000</speed>
</trkpt>
<trkpt lat="55.665009" lon="26.527840">
<ele>151.9</ele>
<time>2010-07-18T10:46:43Z</time>
<desc>lat.=55.665009, lon.=26.527840, Alt.=141.552856m. Speed=24.048000m/h.</desc>
<speed>6.680000</speed>
</trkpt>
<trkpt lat="55.662708" lon="26.533745">
<ele>157.5</ele>
<time>2010-07-18T10:48:33Z</time>
<desc>lat.=55.662708, lon.=26.533745, Alt.=160.935669m. Speed=10.224000m/h.</desc>
<speed>2.840000</speed>
</trkpt>
<trkpt lat="55.661888" lon="26.538742">
<ele>158.6</ele>
<time>2010-07-18T10:50:01Z</time>
<desc>lat.=55.661888, lon.=26.538742, Alt.=151.666138m. Speed=16.667999m/h.</desc>
<speed>4.630000</speed>
</trkpt>
<trkpt lat="55.661575" lon="26.542059">
<ele>158.9</ele>
<time>2010-07-18T10:50:39Z</time>
<desc>lat.=55.661575, lon.=26.542059, Alt.=150.529419m. Speed=20.628000m/h.</desc>
<speed>5.730000</speed>
</trkpt>
<trkpt lat="55.661293" lon="26.548788">
<ele>167.5</ele>
<time>2010-07-18T10:51:41Z</time>
<desc>lat.=55.661293, lon.=26.548788, Alt.=144.377075m. Speed=17.568001m/h.</desc>
<speed>4.880000</speed>
</trkpt>
<trkpt lat="55.660831" lon="26.551065">
<ele>171.2</ele>
<time>2010-07-18T10:52:02Z</time>
<desc>lat.=55.660831, lon.=26.551065, Alt.=131.002075m. Speed=21.384001m/h.</desc>
<speed>5.940000</speed>
</trkpt>
<trkpt lat="55.660748" lon="26.553164">
<ele>162.9</ele>
<time>2010-07-18T10:52:24Z</time>
<desc>lat.=55.660748, lon.=26.553164, Alt.=176.970825m. Speed=9.720000m/h.</desc>
<speed>2.700000</speed>
</trkpt>
<trkpt lat="55.660397" lon="26.555176">
<ele>170.9</ele>
<time>2010-07-18T10:53:00Z</time>
<desc>lat.=55.660397, lon.=26.555176, Alt.=162.923950m. Speed=5.724000m/h.</desc>
<speed>1.590000</speed>
</trkpt>
<trkpt lat="55.660397" lon="26.556416">
<ele>173.3</ele>
<time>2010-07-18T10:53:19Z</time>
<desc>lat.=55.660397, lon.=26.556416, Alt.=147.361450m. Speed=11.304000m/h.</desc>
<speed>3.140000</speed>
</trkpt>
<trkpt lat="55.660198" lon="26.557623">
<ele>171.1</ele>
<time>2010-07-18T10:53:37Z</time>
<desc>lat.=55.660198, lon.=26.557623, Alt.=117.538147m. Speed=11.268000m/h.</desc>
<speed>3.130000</speed>
</trkpt>
<trkpt lat="55.660110" lon="26.566998">
<ele>149.1</ele>
<time>2010-07-18T10:54:56Z</time>
<desc>lat.=55.660110, lon.=26.566998, Alt.=144.826294m. Speed=19.115999m/h.</desc>
<speed>5.310000</speed>
</trkpt>
<trkpt lat="55.660355" lon="26.570267">
<ele>144.2</ele>
<time>2010-07-18T10:56:06Z</time>
<desc>lat.=55.660355, lon.=26.570267, Alt.=141.795044m. Speed=0.252000m/h.</desc>
<speed>0.070000</speed>
</trkpt>
<trkpt lat="55.660236" lon="26.569422">
<ele>147.1</ele>
<time>2010-07-18T10:57:16Z</time>
<desc>lat.=55.660236, lon.=26.569422, Alt.=138.095825m. Speed=13.284000m/h.</desc>
<speed>3.690000</speed>
</trkpt>
<trkpt lat="55.660252" lon="26.568380">
<ele>150.8</ele>
<time>2010-07-18T10:57:59Z</time>
<desc>lat.=55.660252, lon.=26.568380, Alt.=145.412231m. Speed=2.520000m/h.</desc>
<speed>0.700000</speed>
</trkpt>
<trkpt lat="55.660316" lon="26.569742">
<ele>145.9</ele>
<time>2010-07-18T10:58:21Z</time>
<desc>lat.=55.660316, lon.=26.569742, Alt.=144.041138m. Speed=24.624001m/h.</desc>
<speed>6.840000</speed>
</trkpt>
<trkpt lat="55.661049" lon="26.572355">
<ele>143.1</ele>
<time>2010-07-18T11:39:45Z</time>
<desc>lat.=55.661049, lon.=26.572355, Alt.=148.431763m. Speed=6.840000m/h.</desc>
<speed>1.900000</speed>
</trkpt>
<trkpt lat="55.661831" lon="26.577129">
<ele>146.6</ele>
<time>2010-07-18T11:41:06Z</time>
<desc>lat.=55.661831, lon.=26.577129, Alt.=146.338013m. Speed=12.600000m/h.</desc>
<speed>3.500000</speed>
</trkpt>
<trkpt lat="55.661713" lon="26.578089">
<ele>145.9</ele>
<time>2010-07-18T11:41:17Z</time>
<desc>lat.=55.661713, lon.=26.578089, Alt.=144.197388m. Speed=14.760000m/h.</desc>
<speed>4.100000</speed>
</trkpt>
<trkpt lat="55.660942" lon="26.580395">
<ele>148.2</ele>
<time>2010-07-18T11:42:03Z</time>
<desc>lat.=55.660942, lon.=26.580395, Alt.=145.873169m. Speed=9.108000m/h.</desc>
<speed>2.530000</speed>
</trkpt>
<trkpt lat="55.660332" lon="26.583197">
<ele>149.5</ele>
<time>2010-07-18T11:42:50Z</time>
<desc>lat.=55.660332, lon.=26.583197, Alt.=150.228638m. Speed=3.996000m/h.</desc>
<speed>1.110000</speed>
</trkpt>
<trkpt lat="55.659542" lon="26.585304">
<ele>155.1</ele>
<time>2010-07-18T11:43:43Z</time>
<desc>lat.=55.659542, lon.=26.585304, Alt.=150.095825m. Speed=10.224000m/h.</desc>
<speed>2.840000</speed>
</trkpt>
<trkpt lat="55.659317" lon="26.586555">
<ele>155.6</ele>
<time>2010-07-18T11:44:05Z</time>
<desc>lat.=55.659317, lon.=26.586555, Alt.=156.013794m. Speed=8.388000m/h.</desc>
<speed>2.330000</speed>
</trkpt>
<trkpt lat="55.659374" lon="26.588425">
<ele>159.8</ele>
<time>2010-07-18T11:44:37Z</time>
<desc>lat.=55.659374, lon.=26.588425, Alt.=140.595825m. Speed=14.472000m/h.</desc>
<speed>4.020000</speed>
</trkpt>
<trkpt lat="55.660641" lon="26.594204">
<ele>154.5</ele>
<time>2010-07-18T11:46:08Z</time>
<desc>lat.=55.660641, lon.=26.594204, Alt.=140.689575m. Speed=13.320000m/h.</desc>
<speed>3.700000</speed>
</trkpt>
<trkpt lat="55.660831" lon="26.594326">
<ele>153.2</ele>
<time>2010-07-18T11:46:14Z</time>
<desc>lat.=55.660831, lon.=26.594326, Alt.=141.334106m. Speed=13.968000m/h.</desc>
<speed>3.880000</speed>
</trkpt>
<trkpt lat="55.660988" lon="26.594072">
<ele>151.2</ele>
<time>2010-07-18T11:46:21Z</time>
<desc>lat.=55.660988, lon.=26.594072, Alt.=142.810669m. Speed=12.996000m/h.</desc>
<speed>3.610000</speed>
</trkpt>
<trkpt lat="55.661278" lon="26.590490">
<ele>150.4</ele>
<time>2010-07-18T11:47:12Z</time>
<desc>lat.=55.661278, lon.=26.590490, Alt.=143.123169m. Speed=19.080000m/h.</desc>
<speed>5.300000</speed>
</trkpt>
<trkpt lat="55.661777" lon="26.589212">
<ele>149.0</ele>
<time>2010-07-18T11:47:32Z</time>
<desc>lat.=55.661777, lon.=26.589212, Alt.=143.681763m. Speed=15.084000m/h.</desc>
<speed>4.190000</speed>
</trkpt>
<trkpt lat="55.662445" lon="26.588520">
<ele>150.7</ele>
<time>2010-07-18T11:47:53Z</time>
<desc>lat.=55.662445, lon.=26.588520, Alt.=144.240356m. Speed=10.908000m/h.</desc>
<speed>3.030000</speed>
</trkpt>
<trkpt lat="55.664108" lon="26.587679">
<ele>151.4</ele>
<time>2010-07-18T11:48:42Z</time>
<desc>lat.=55.664108, lon.=26.587679, Alt.=145.798950m. Speed=7.776000m/h.</desc>
<speed>2.160000</speed>
</trkpt>
<trkpt lat="55.666466" lon="26.588102">
<ele>150.2</ele>
<time>2010-07-18T11:51:03Z</time>
<desc>lat.=55.666466, lon.=26.588102, Alt.=146.244263m. Speed=10.188000m/h.</desc>
<speed>2.830000</speed>
</trkpt>
<trkpt lat="55.668896" lon="26.590395">
<ele>152.8</ele>
<time>2010-07-18T11:52:21Z</time>
<desc>lat.=55.668896, lon.=26.590395, Alt.=143.123169m. Speed=16.992001m/h.</desc>
<speed>4.720000</speed>
</trkpt>
<trkpt lat="55.672508" lon="26.590628">
<ele>153.9</ele>
<time>2010-07-18T11:54:17Z</time>
<desc>lat.=55.672508, lon.=26.590628, Alt.=151.427856m. Speed=10.908000m/h.</desc>
<speed>3.030000</speed>
</trkpt>
<trkpt lat="55.673832" lon="26.589705">
<ele>159.4</ele>
<time>2010-07-18T11:54:59Z</time>
<desc>lat.=55.673832, lon.=26.589705, Alt.=149.150513m. Speed=15.372000m/h.</desc>
<speed>4.270000</speed>
</trkpt>
<trkpt lat="55.674141" lon="26.588999">
<ele>153.1</ele>
<time>2010-07-18T11:55:12Z</time>
<desc>lat.=55.674141, lon.=26.588999, Alt.=146.478638m. Speed=16.812000m/h.</desc>
<speed>4.670000</speed>
</trkpt>
<trkpt lat="55.674789" lon="26.584335">
<ele>153.6</ele>
<time>2010-07-18T11:56:19Z</time>
<desc>lat.=55.674789, lon.=26.584335, Alt.=146.607544m. Speed=13.824000m/h.</desc>
<speed>3.840000</speed>
</trkpt>
<trkpt lat="55.675556" lon="26.582100">
<ele>152.4</ele>
<time>2010-07-18T12:00:04Z</time>
<desc>lat.=55.675556, lon.=26.582100, Alt.=145.173950m. Speed=0.252000m/h.</desc>
<speed>0.070000</speed>
</trkpt>
<trkpt lat="55.675812" lon="26.580862">
<ele>153.9</ele>
<time>2010-07-18T12:01:01Z</time>
<desc>lat.=55.675812, lon.=26.580862, Alt.=146.724731m. Speed=13.068000m/h.</desc>
<speed>3.630000</speed>
</trkpt>
<trkpt lat="55.676487" lon="26.579599">
<ele>154.3</ele>
<time>2010-07-18T12:01:31Z</time>
<desc>lat.=55.676487, lon.=26.579599, Alt.=147.623169m. Speed=13.068000m/h.</desc>
<speed>3.630000</speed>
</trkpt>
<trkpt lat="55.687405" lon="26.567886">
<ele>150.0</ele>
<time>2010-07-18T12:07:41Z</time>
<desc>lat.=55.687405, lon.=26.567886, Alt.=143.728638m. Speed=0.432000m/h.</desc>
<speed>0.120000</speed>
</trkpt>
<trkpt lat="55.696709" lon="26.554127">
<ele>157.7</ele>
<time>2010-07-18T12:13:32Z</time>
<desc>lat.=55.696709, lon.=26.554127, Alt.=158.959106m. Speed=12.348000m/h.</desc>
<speed>3.430000</speed>
</trkpt>
<trkpt lat="55.698734" lon="26.551399">
<ele>160.4</ele>
<time>2010-07-18T12:14:52Z</time>
<desc>lat.=55.698734, lon.=26.551399, Alt.=154.662231m. Speed=14.904000m/h.</desc>
<speed>4.140000</speed>
</trkpt>
<trkpt lat="55.699837" lon="26.550188">
<ele>155.3</ele>
<time>2010-07-18T12:15:25Z</time>
<desc>lat.=55.699837, lon.=26.550188, Alt.=150.896606m. Speed=16.667999m/h.</desc>
<speed>4.630000</speed>
</trkpt>
<trkpt lat="55.701923" lon="26.548569">
<ele>153.5</ele>
<time>2010-07-18T12:16:28Z</time>
<desc>lat.=55.701923, lon.=26.548569, Alt.=142.052856m. Speed=16.236000m/h.</desc>
<speed>4.510000</speed>
</trkpt>
<trkpt lat="55.703884" lon="26.547422">
<ele>154.9</ele>
<time>2010-07-18T12:17:29Z</time>
<desc>lat.=55.703884, lon.=26.547422, Alt.=144.005981m. Speed=16.559999m/h.</desc>
<speed>4.600000</speed>
</trkpt>
<trkpt lat="55.705238" lon="26.546946">
<ele>155.5</ele>
<time>2010-07-18T12:18:05Z</time>
<desc>lat.=55.705238, lon.=26.546946, Alt.=146.525513m. Speed=15.552000m/h.</desc>
<speed>4.320000</speed>
</trkpt>
<trkpt lat="55.708794" lon="26.546764">
<ele>160.9</ele>
<time>2010-07-18T12:19:45Z</time>
<desc>lat.=55.708794, lon.=26.546764, Alt.=154.041138m. Speed=14.436000m/h.</desc>
<speed>4.010000</speed>
</trkpt>
<trkpt lat="55.724483" lon="26.551334">
<ele>153.3</ele>
<time>2010-07-18T12:26:36Z</time>
<desc>lat.=55.724483, lon.=26.551334, Alt.=152.935669m. Speed=18.504000m/h.</desc>
<speed>5.140000</speed>
</trkpt>
<trkpt lat="55.727074" lon="26.551701">
<ele>151.5</ele>
<time>2010-07-18T12:27:49Z</time>
<desc>lat.=55.727074, lon.=26.551701, Alt.=148.572388m. Speed=9.288000m/h.</desc>
<speed>2.580000</speed>
</trkpt>
<trkpt lat="55.727116" lon="26.550951">
<ele>153.5</ele>
<time>2010-07-18T12:28:04Z</time>
<desc>lat.=55.727116, lon.=26.550951, Alt.=145.865356m. Speed=6.444000m/h.</desc>
<speed>1.790000</speed>
</trkpt>
<trkpt lat="55.726894" lon="26.550463">
<ele>152.3</ele>
<time>2010-07-18T12:57:54Z</time>
<desc>lat.=55.726894, lon.=26.550463, Alt.=143.935669m. Speed=0.108000m/h.</desc>
<speed>0.030000</speed>
</trkpt>
<trkpt lat="55.727283" lon="26.551752">
<ele>151.4</ele>
<time>2010-07-18T13:09:53Z</time>
<desc>lat.=55.727283, lon.=26.551752, Alt.=149.447388m. Speed=8.712000m/h.</desc>
<speed>2.420000</speed>
</trkpt>
<trkpt lat="55.730595" lon="26.552010">
<ele>156.4</ele>
<time>2010-07-18T13:11:20Z</time>
<desc>lat.=55.730595, lon.=26.552010, Alt.=152.986450m. Speed=17.892000m/h.</desc>
<speed>4.970000</speed>
</trkpt>
<trkpt lat="55.735031" lon="26.551723">
<ele>150.9</ele>
<time>2010-07-18T13:12:46Z</time>
<desc>lat.=55.735031, lon.=26.551723, Alt.=152.220825m. Speed=26.100000m/h.</desc>
<speed>7.250000</speed>
</trkpt>
<trkpt lat="55.751545" lon="26.548481">
<ele>159.3</ele>
<time>2010-07-18T13:18:11Z</time>
<desc>lat.=55.751545, lon.=26.548481, Alt.=159.451294m. Speed=18.756001m/h.</desc>
<speed>5.210000</speed>
</trkpt>
<trkpt lat="55.754116" lon="26.547062">
<ele>159.6</ele>
<time>2010-07-18T13:19:05Z</time>
<desc>lat.=55.754116, lon.=26.547062, Alt.=161.013794m. Speed=20.879999m/h.</desc>
<speed>5.800000</speed>
</trkpt>
<trkpt lat="55.759018" lon="26.543364">
<ele>170.4</ele>
<time>2010-07-18T13:21:07Z</time>
<desc>lat.=55.759018, lon.=26.543364, Alt.=162.295044m. Speed=24.120001m/h.</desc>
<speed>6.700000</speed>
</trkpt>
<trkpt lat="55.762375" lon="26.541164">
<ele>159.5</ele>
<time>2010-07-18T13:22:03Z</time>
<desc>lat.=55.762375, lon.=26.541164, Alt.=161.681763m. Speed=26.892000m/h.</desc>
<speed>7.470000</speed>
</trkpt>
<trkpt lat="55.766068" lon="26.537884">
<ele>152.5</ele>
<time>2010-07-18T13:23:03Z</time>
<desc>lat.=55.766068, lon.=26.537884, Alt.=157.091919m. Speed=28.620001m/h.</desc>
<speed>7.950000</speed>
</trkpt>
<trkpt lat="55.773129" lon="26.535772">
<ele>153.6</ele>
<time>2010-07-18T13:24:56Z</time>
<desc>lat.=55.773129, lon.=26.535772, Alt.=155.787231m. Speed=17.100000m/h.</desc>
<speed>4.750000</speed>
</trkpt>
<trkpt lat="55.774303" lon="26.534878">
<ele>156.1</ele>
<time>2010-07-18T13:25:34Z</time>
<desc>lat.=55.774303, lon.=26.534878, Alt.=150.814575m. Speed=11.700000m/h.</desc>
<speed>3.250000</speed>
</trkpt>
<trkpt lat="55.777302" lon="26.531406">
<ele>143.4</ele>
<time>2010-07-18T13:26:28Z</time>
<desc>lat.=55.777302, lon.=26.531406, Alt.=144.720825m. Speed=37.332001m/h.</desc>
<speed>10.370000</speed>
</trkpt>
<trkpt lat="55.783104" lon="26.527115">
<ele>139.7</ele>
<time>2010-07-18T13:29:45Z</time>
<desc>lat.=55.783104, lon.=26.527115, Alt.=138.892700m. Speed=36.071999m/h.</desc>
<speed>10.020000</speed>
</trkpt>
<trkpt lat="55.785599" lon="26.525717">
<ele>143.6</ele>
<time>2010-07-18T13:30:30Z</time>
<desc>lat.=55.785599, lon.=26.525717, Alt.=143.330200m. Speed=19.548000m/h.</desc>
<speed>5.430000</speed>
</trkpt>
<trkpt lat="55.788509" lon="26.525003">
<ele>134.9</ele>
<time>2010-07-18T13:31:12Z</time>
<desc>lat.=55.788509, lon.=26.525003, Alt.=132.912231m. Speed=38.448002m/h.</desc>
<speed>10.680001</speed>
</trkpt>
<trkpt lat="55.793667" lon="26.525141">
<ele>126.1</ele>
<time>2010-07-18T13:32:13Z</time>
<desc>lat.=55.793667, lon.=26.525141, Alt.=121.403381m. Speed=28.296000m/h.</desc>
<speed>7.860000</speed>
</trkpt>
<trkpt lat="55.797176" lon="26.524643">
<ele>127.8</ele>
<time>2010-07-18T13:33:11Z</time>
<desc>lat.=55.797176, lon.=26.524643, Alt.=124.463928m. Speed=17.136000m/h.</desc>
<speed>4.760000</speed>
</trkpt>
<trkpt lat="55.799606" lon="26.524611">
<ele>133.9</ele>
<time>2010-07-18T13:34:04Z</time>
<desc>lat.=55.799606, lon.=26.524611, Alt.=127.563538m. Speed=16.596001m/h.</desc>
<speed>4.610000</speed>
</trkpt>
<trkpt lat="55.804134" lon="26.525677">
<ele>122.4</ele>
<time>2010-07-18T13:35:05Z</time>
<desc>lat.=55.804134, lon.=26.525677, Alt.=117.376038m. Speed=31.572001m/h.</desc>
<speed>8.770000</speed>
</trkpt>
<trkpt lat="55.805828" lon="26.525780">
<ele>125.3</ele>
<time>2010-07-18T13:35:32Z</time>
<desc>lat.=55.805828, lon.=26.525780, Alt.=115.344788m. Speed=20.483999m/h.</desc>
<speed>5.690000</speed>
</trkpt>
<trkpt lat="55.807533" lon="26.525576">
<ele>125.1</ele>
<time>2010-07-18T13:36:10Z</time>
<desc>lat.=55.807533, lon.=26.525576, Alt.=115.012756m. Speed=17.820000m/h.</desc>
<speed>4.950000</speed>
</trkpt>
<trkpt lat="55.818604" lon="26.522881">
<ele>119.5</ele>
<time>2010-07-18T13:39:29Z</time>
<desc>lat.=55.818604, lon.=26.522881, Alt.=107.219788m. Speed=20.087999m/h.</desc>
<speed>5.580000</speed>
</trkpt>
<trkpt lat="55.819973" lon="26.522764">
<ele>119.6</ele>
<time>2010-07-18T13:39:54Z</time>
<desc>lat.=55.819973, lon.=26.522764, Alt.=105.346741m. Speed=23.076000m/h.</desc>
<speed>6.410000</speed>
</trkpt>
<trkpt lat="55.823048" lon="26.523293">
<ele>112.1</ele>
<time>2010-07-18T13:40:32Z</time>
<desc>lat.=55.823048, lon.=26.523293, Alt.=101.434631m. Speed=33.012001m/h.</desc>
<speed>9.170000</speed>
</trkpt>
<trkpt lat="55.829033" lon="26.525995">
<ele>109.9</ele>
<time>2010-07-18T13:42:23Z</time>
<desc>lat.=55.829033, lon.=26.525995, Alt.=101.905334m. Speed=23.148001m/h.</desc>
<speed>6.430000</speed>
</trkpt>
<trkpt lat="55.838982" lon="26.526564">
<ele>103.9</ele>
<time>2010-07-18T13:45:11Z</time>
<desc>lat.=55.838982, lon.=26.526564, Alt.=94.926819m. Speed=28.691999m/h.</desc>
<speed>7.970000</speed>
</trkpt>
<trkpt lat="55.840614" lon="26.526278">
<ele>94.7</ele>
<time>2010-07-18T13:45:34Z</time>
<desc>lat.=55.840614, lon.=26.526278, Alt.=92.823303m. Speed=25.704000m/h.</desc>
<speed>7.140000</speed>
</trkpt>
<trkpt lat="55.842766" lon="26.525515">
<ele>96.5</ele>
<time>2010-07-18T13:46:08Z</time>
<desc>lat.=55.842766, lon.=26.525515, Alt.=93.698303m. Speed=27.540001m/h.</desc>
<speed>7.650000</speed>
</trkpt>
<trkpt lat="55.845009" lon="26.524149">
<ele>96.4</ele>
<time>2010-07-18T13:46:47Z</time>
<desc>lat.=55.845009, lon.=26.524149, Alt.=95.821350m. Speed=21.132000m/h.</desc>
<speed>5.870000</speed>
</trkpt>
<trkpt lat="55.847523" lon="26.522062">
<ele>98.1</ele>
<time>2010-07-18T13:47:45Z</time>
<desc>lat.=55.847523, lon.=26.522062, Alt.=101.981506m. Speed=21.275999m/h.</desc>
<speed>5.910000</speed>
</trkpt>
<trkpt lat="55.849831" lon="26.521370">
<ele>96.0</ele>
<time>2010-07-18T13:48:30Z</time>
<desc>lat.=55.849831, lon.=26.521370, Alt.=92.252991m. Speed=18.216000m/h.</desc>
<speed>5.060000</speed>
</trkpt>
<trkpt lat="55.849991" lon="26.521587">
<ele>94.8</ele>
<time>2010-07-18T13:48:34Z</time>
<desc>lat.=55.849991, lon.=26.521587, Alt.=90.944397m. Speed=23.327999m/h.</desc>
<speed>6.480000</speed>
</trkpt>
<trkpt lat="55.849991" lon="26.522352">
<ele>94.8</ele>
<time>2010-07-18T13:48:42Z</time>
<desc>lat.=55.849991, lon.=26.522352, Alt.=91.180725m. Speed=21.132000m/h.</desc>
<speed>5.870000</speed>
</trkpt>
<trkpt lat="55.849758" lon="26.527575">
<ele>95.1</ele>
<time>2010-07-18T13:49:45Z</time>
<desc>lat.=55.849758, lon.=26.527575, Alt.=83.051819m. Speed=19.152000m/h.</desc>
<speed>5.320000</speed>
</trkpt>
<trkpt lat="55.849922" lon="26.528151">
<ele>94.6</ele>
<time>2010-07-18T13:49:52Z</time>
<desc>lat.=55.849922, lon.=26.528151, Alt.=81.883850m. Speed=21.204000m/h.</desc>
<speed>5.890000</speed>
</trkpt>
<trkpt lat="55.850582" lon="26.529205">
<ele>94.0</ele>
<time>2010-07-18T13:50:11Z</time>
<desc>lat.=55.850582, lon.=26.529205, Alt.=87.854553m. Speed=16.632000m/h.</desc>
<speed>4.620000</speed>
</trkpt>
<trkpt lat="55.858871" lon="26.531067">
<ele>95.5</ele>
<time>2010-07-18T13:56:37Z</time>
<desc>lat.=55.858871, lon.=26.531067, Alt.=93.899475m. Speed=4.644000m/h.</desc>
<speed>1.290000</speed>
</trkpt>
<trkpt lat="55.860523" lon="26.523207">
<ele>93.4</ele>
<time>2010-07-18T13:58:09Z</time>
<desc>lat.=55.860523, lon.=26.523207, Alt.=92.504944m. Speed=24.804001m/h.</desc>
<speed>6.890000</speed>
</trkpt>
<trkpt lat="55.864071" lon="26.511108">
<ele>101.6</ele>
<time>2010-07-18T14:00:18Z</time>
<desc>lat.=55.864071, lon.=26.511108, Alt.=96.122131m. Speed=20.016001m/h.</desc>
<speed>5.560000</speed>
</trkpt>
<trkpt lat="55.867340" lon="26.513144">
<ele>98.2</ele>
<time>2010-07-18T14:01:32Z</time>
<desc>lat.=55.867340, lon.=26.513144, Alt.=100.645569m. Speed=15.876000m/h.</desc>
<speed>4.410000</speed>
</trkpt>
<trkpt lat="55.867542" lon="26.511345">
<ele>93.1</ele>
<time>2010-07-18T14:01:50Z</time>
<desc>lat.=55.867542, lon.=26.511345, Alt.=96.772522m. Speed=28.908001m/h.</desc>
<speed>8.030000</speed>
</trkpt>
<trkpt lat="55.868687" lon="26.507397">
<ele>91.3</ele>
<time>2010-07-18T14:02:23Z</time>
<desc>lat.=55.868687, lon.=26.507397, Alt.=94.993225m. Speed=32.220001m/h.</desc>
<speed>8.950000</speed>
</trkpt>
<trkpt lat="55.869213" lon="26.506104">
<ele>91.3</ele>
<time>2010-07-18T14:02:34Z</time>
<desc>lat.=55.869213, lon.=26.506104, Alt.=95.770569m. Speed=34.956001m/h.</desc>
<speed>9.710000</speed>
</trkpt>
<trkpt lat="55.870121" lon="26.504961">
<ele>93.1</ele>
<time>2010-07-18T14:02:46Z</time>
<desc>lat.=55.870121, lon.=26.504961, Alt.=97.295959m. Speed=34.271999m/h.</desc>
<speed>9.520000</speed>
</trkpt>
<trkpt lat="55.871284" lon="26.504189">
<ele>93.2</ele>
<time>2010-07-18T14:03:02Z</time>
<desc>lat.=55.871284, lon.=26.504189, Alt.=96.544006m. Speed=30.563999m/h.</desc>
<speed>8.490000</speed>
</trkpt>
<trkpt lat="55.872730" lon="26.503683">
<ele>92.4</ele>
<time>2010-07-18T14:03:23Z</time>
<desc>lat.=55.872730, lon.=26.503683, Alt.=94.833069m. Speed=27.900000m/h.</desc>
<speed>7.750000</speed>
</trkpt>
<trkpt lat="55.876499" lon="26.503229">
<ele>94.4</ele>
<time>2010-07-18T14:04:14Z</time>
<desc>lat.=55.876499, lon.=26.503229, Alt.=91.237366m. Speed=27.792000m/h.</desc>
<speed>7.720000</speed>
</trkpt>
<trkpt lat="55.878448" lon="26.501774">
<ele>99.2</ele>
<time>2010-07-18T14:04:46Z</time>
<desc>lat.=55.878448, lon.=26.501774, Alt.=89.811584m. Speed=23.364000m/h.</desc>
<speed>6.490000</speed>
</trkpt>
<trkpt lat="55.879948" lon="26.501436">
<ele>94.8</ele>
<time>2010-07-18T14:05:12Z</time>
<desc>lat.=55.879948, lon.=26.501436, Alt.=86.571350m. Speed=24.516001m/h.</desc>
<speed>6.810000</speed>
</trkpt>
<trkpt lat="55.880699" lon="26.500559">
<ele>96.7</ele>
<time>2010-07-18T14:05:26Z</time>
<desc>lat.=55.880699, lon.=26.500559, Alt.=85.846741m. Speed=22.716000m/h.</desc>
<speed>6.310000</speed>
</trkpt>
<trkpt lat="55.881702" lon="26.502453">
<ele>96.7</ele>
<time>2010-07-18T14:05:53Z</time>
<desc>lat.=55.881702, lon.=26.502453, Alt.=89.411194m. Speed=24.084000m/h.</desc>
<speed>6.690000</speed>
</trkpt>
<trkpt lat="55.882973" lon="26.504341">
<ele>96.7</ele>
<time>2010-07-18T14:06:22Z</time>
<desc>lat.=55.882973, lon.=26.504341, Alt.=87.044006m. Speed=25.992001m/h.</desc>
<speed>7.220000</speed>
</trkpt>
<trkpt lat="55.885674" lon="26.506237">
<ele>94.5</ele>
<time>2010-07-18T14:07:04Z</time>
<desc>lat.=55.885674, lon.=26.506237, Alt.=83.071350m. Speed=29.268000m/h.</desc>
<speed>8.130000</speed>
</trkpt>
<trkpt lat="55.887878" lon="26.508312">
<ele>92.8</ele>
<time>2010-07-18T14:07:41Z</time>
<desc>lat.=55.887878, lon.=26.508312, Alt.=81.317444m. Speed=25.236000m/h.</desc>
<speed>7.010000</speed>
</trkpt>
<trkpt lat="55.888153" lon="26.508196">
<ele>92.3</ele>
<time>2010-07-18T14:07:46Z</time>
<desc>lat.=55.888153, lon.=26.508196, Alt.=80.585022m. Speed=21.636000m/h.</desc>
<speed>6.010000</speed>
</trkpt>
<trkpt lat="55.889160" lon="26.506184">
<ele>97.0</ele>
<time>2010-07-18T14:08:15Z</time>
<desc>lat.=55.889160, lon.=26.506184, Alt.=92.405334m. Speed=15.480000m/h.</desc>
<speed>4.300000</speed>
</trkpt>
<trkpt lat="55.889801" lon="26.506554">
<ele>93.6</ele>
<time>2010-07-18T14:08:31Z</time>
<desc>lat.=55.889801, lon.=26.506554, Alt.=93.292053m. Speed=13.536000m/h.</desc>
<speed>3.760000</speed>
</trkpt>
<trkpt lat="55.890732" lon="26.505749">
<ele>93.7</ele>
<time>2010-07-18T14:08:52Z</time>
<desc>lat.=55.890732, lon.=26.505749, Alt.=93.926819m. Speed=24.768000m/h.</desc>
<speed>6.880000</speed>
</trkpt>
<trkpt lat="55.895172" lon="26.499809">
<ele>97.3</ele>
<time>2010-07-18T14:10:17Z</time>
<desc>lat.=55.895172, lon.=26.499809, Alt.=96.655334m. Speed=18.252001m/h.</desc>
<speed>5.070000</speed>
</trkpt>
<trkpt lat="55.895393" lon="26.500313">
<ele>97.2</ele>
<time>2010-07-18T14:10:25Z</time>
<desc>lat.=55.895393, lon.=26.500313, Alt.=96.163147m. Speed=15.768000m/h.</desc>
<speed>4.380000</speed>
</trkpt>
<trkpt lat="55.895332" lon="26.500839">
<ele>97.3</ele>
<time>2010-07-18T14:10:32Z</time>
<desc>lat.=55.895332, lon.=26.500839, Alt.=96.831116m. Speed=18.684000m/h.</desc>
<speed>5.190000</speed>
</trkpt>
<trkpt lat="55.893597" lon="26.503239">
<ele>97.2</ele>
<time>2010-07-18T14:11:10Z</time>
<desc>lat.=55.893597, lon.=26.503239, Alt.=88.377991m. Speed=22.535999m/h.</desc>
<speed>6.260000</speed>
</trkpt>
<trkpt lat="55.892227" lon="26.505535">
<ele>94.5</ele>
<time>2010-07-18T14:11:43Z</time>
<desc>lat.=55.892227, lon.=26.505535, Alt.=87.221741m. Speed=18.431999m/h.</desc>
<speed>5.120000</speed>
</trkpt>
<trkpt lat="55.891872" lon="26.506557">
<ele>96.9</ele>
<time>2010-07-18T14:12:00Z</time>
<desc>lat.=55.891872, lon.=26.506557, Alt.=89.788147m. Speed=14.256000m/h.</desc>
<speed>3.960000</speed>
</trkpt>
<trkpt lat="55.892590" lon="26.508844">
<ele>96.9</ele>
<time>2010-07-18T14:12:35Z</time>
<desc>lat.=55.892590, lon.=26.508844, Alt.=93.840881m. Speed=15.408000m/h.</desc>
<speed>4.280000</speed>
</trkpt>
<trkpt lat="55.893288" lon="26.512339">
<ele>93.0</ele>
<time>2010-07-18T14:13:21Z</time>
<desc>lat.=55.893288, lon.=26.512339, Alt.=94.930725m. Speed=17.459999m/h.</desc>
<speed>4.850000</speed>
</trkpt>
<trkpt lat="55.894203" lon="26.514076">
<ele>95.4</ele>
<time>2010-07-18T14:13:57Z</time>
<desc>lat.=55.894203, lon.=26.514076, Alt.=94.737366m. Speed=16.308001m/h.</desc>
<speed>4.530000</speed>
</trkpt>
<trkpt lat="55.895111" lon="26.516409">
<ele>95.7</ele>
<time>2010-07-18T14:14:36Z</time>
<desc>lat.=55.895111, lon.=26.516409, Alt.=92.823303m. Speed=17.676001m/h.</desc>
<speed>4.910000</speed>
</trkpt>
<trkpt lat="55.895634" lon="26.519287">
<ele>93.5</ele>
<time>2010-07-18T14:15:12Z</time>
<desc>lat.=55.895634, lon.=26.519287, Alt.=87.917053m. Speed=18.792000m/h.</desc>
<speed>5.220000</speed>
</trkpt>
<trkpt lat="55.896709" lon="26.520294">
<ele>96.7</ele>
<time>2010-07-18T14:15:44Z</time>
<desc>lat.=55.896709, lon.=26.520294, Alt.=92.401428m. Speed=8.964000m/h.</desc>
<speed>2.490000</speed>
</trkpt>
<trkpt lat="55.898552" lon="26.525003">
<ele>105.8</ele>
<time>2010-07-18T14:17:01Z</time>
<desc>lat.=55.898552, lon.=26.525003, Alt.=103.844788m. Speed=18.900000m/h.</desc>
<speed>5.250000</speed>
</trkpt>
<trkpt lat="55.899349" lon="26.525627">
<ele>107.0</ele>
<time>2010-07-18T14:17:18Z</time>
<desc>lat.=55.899349, lon.=26.525627, Alt.=102.919006m. Speed=16.955999m/h.</desc>
<speed>4.710000</speed>
</trkpt>
<trkpt lat="55.899841" lon="26.526873">
<ele>108.5</ele>
<time>2010-07-18T14:17:40Z</time>
<desc>lat.=55.899841, lon.=26.526873, Alt.=103.104553m. Speed=17.280001m/h.</desc>
<speed>4.800000</speed>
</trkpt>
<trkpt lat="55.900394" lon="26.527435">
<ele>107.0</ele>
<time>2010-07-18T14:17:52Z</time>
<desc>lat.=55.900394, lon.=26.527435, Alt.=104.602600m. Speed=17.892000m/h.</desc>
<speed>4.970000</speed>
</trkpt>
<trkpt lat="55.900116" lon="26.528610">
<ele>111.3</ele>
<time>2010-07-18T14:18:12Z</time>
<desc>lat.=55.900116, lon.=26.528610, Alt.=100.419006m. Speed=10.224000m/h.</desc>
<speed>2.840000</speed>
</trkpt>
<trkpt lat="55.900425" lon="26.528986">
<ele>108.7</ele>
<time>2010-07-18T14:19:58Z</time>
<desc>lat.=55.900425, lon.=26.528986, Alt.=100.795959m. Speed=0.468000m/h.</desc>
<speed>0.130000</speed>
</trkpt>
<trkpt lat="55.900276" lon="26.529013">
<ele>109.2</ele>
<time>2010-07-18T14:22:00Z</time>
<desc>lat.=55.900276, lon.=26.529013, Alt.=101.461975m. Speed=0.540000m/h.</desc>
<speed>0.150000</speed>
</trkpt>
<trkpt lat="55.900291" lon="26.528801">
<ele>109.2</ele>
<time>2010-07-18T14:23:28Z</time>
<desc>lat.=55.900291, lon.=26.528801, Alt.=105.249084m. Speed=0.108000m/h.</desc>
<speed>0.030000</speed>
</trkpt>
<trkpt lat="55.900200" lon="26.528959">
<ele>109.5</ele>
<time>2010-07-18T14:24:01Z</time>
<desc>lat.=55.900200, lon.=26.528959, Alt.=110.219788m. Speed=1.044000m/h.</desc>
<speed>0.290000</speed>
</trkpt>
<trkpt lat="55.900345" lon="26.528790">
<ele>108.7</ele>
<time>2010-07-18T14:30:08Z</time>
<desc>lat.=55.900345, lon.=26.528790, Alt.=118.866272m. Speed=0.108000m/h.</desc>
<speed>0.030000</speed>
</trkpt>
<trkpt lat="55.900333" lon="26.529320">
<ele>109.9</ele>
<time>2010-07-18T14:38:42Z</time>
<desc>lat.=55.900333, lon.=26.529320, Alt.=114.881897m. Speed=0.648000m/h.</desc>
<speed>0.180000</speed>
</trkpt>
<trkpt lat="55.900318" lon="26.528963">
<ele>109.0</ele>
<time>2010-07-18T14:40:26Z</time>
<desc>lat.=55.900318, lon.=26.528963, Alt.=122.065491m. Speed=0.216000m/h.</desc>
<speed>0.060000</speed>
</trkpt>
</trkseg>
</trk>
</gpx>